Time;durP1;ratioP1;P1;durP2;ratioP2;P2;SDS_P1;SDS_P2;PMS_P1;PMS_P2;Temp;Humidity;BMP_temperature;BMP_pressure;BME280_temperature;BME280_humidity;BME280_pressure;Samples;Min_cycle;Max_cycle;Signal;HPM_P1;HPM_P2
2023/04/08 00:00:14;;;;;;;4.18;3.17;;;;;;;;;;5026156;28;20738;-79
2023/04/08 00:02:40;;;;;;;4.18;3.00;;;;;;;;;;5025725;28;20038;-78
2023/04/08 00:05:07;;;;;;;4.30;3.38;;;;;;;;;;5026249;28;20033;-78
2023/04/08 00:07:33;;;;;;;3.58;2.70;;;;;;;;;;5029204;28;20091;-78
2023/04/08 00:09:59;;;;;;;4.65;3.00;;;;;;;;;;5028709;28;20033;-78
2023/04/08 00:12:26;;;;;;;4.20;3.30;;;;;;;;;;5027168;28;20115;-77
2023/04/08 00:14:52;;;;;;;3.72;2.72;;;;;;;;;;5028552;28;20021;-78
2023/04/08 00:17:18;;;;;;;4.57;3.20;;;;;;;;;;5028393;28;20108;-77
2023/04/08 00:19:44;;;;;;;4.78;3.17;;;;;;;;;;5029643;28;20032;-77
2023/04/08 00:22:11;;;;;;;6.22;3.10;;;;;;;;;;5026701;28;20103;-77
2023/04/08 00:24:37;;;;;;;5.65;2.80;;;;;;;;;;5029189;28;20084;-78
2023/04/08 00:27:03;;;;;;;6.45;3.20;;;;;;;;;;5027661;28;20102;-78
2023/04/08 00:29:29;;;;;;;4.78;3.40;;;;;;;;;;5029138;28;20025;-78
2023/04/08 00:31:55;;;;;;;5.10;3.15;;;;;;;;;;5028300;28;20556;-78
2023/04/08 00:34:22;;;;;;;4.85;3.13;;;;;;;;;;5010502;28;20493;-78
2023/04/08 00:36:48;;;;;;;4.78;2.90;;;;;;;;;;5028425;28;20028;-78
2023/04/08 00:39:14;;;;;;;4.80;2.97;;;;;;;;;;5028841;28;20032;-78
2023/04/08 00:41:40;;;;;;;5.03;3.35;;;;;;;;;;5028608;28;20025;-78
2023/04/08 00:44:06;;;;;;;7.65;3.45;;;;;;;;;;5029019;28;20040;-78
2023/04/08 00:46:36;;;;;;;5.97;3.20;;;;;;;;;;5028264;28;20025;-78
2023/04/08 00:49:02;;;;;;;11.57;3.28;;;;;;;;;;5028409;28;20029;-78
2023/04/08 00:51:30;;;;;;;4.68;2.95;;;;;;;;;;5026788;28;20037;-78
2023/04/08 00:53:56;;;;;;;6.57;3.50;;;;;;;;;;5028439;28;20111;-78
2023/04/08 00:56:23;;;;;;;5.22;3.25;;;;;;;;;;5028974;28;20019;-78
2023/04/08 00:58:52;;;;;;;4.50;2.78;;;;;;;;;;5026734;28;20018;-78
2023/04/08 01:01:25;;;;;;;5.90;3.00;;;;;;;;;;5027009;28;20028;-78
2023/04/08 01:04:01;;;;;;;4.47;3.30;;;;;;;;;;5025174;28;20037;-77
2023/04/08 01:06:42;;;;;;;4.30;3.63;;;;;;;;;;5032847;28;20030;-78
2023/04/08 01:09:09;;;;;;;4.30;3.25;;;;;;;;;;5028496;28;20030;-78
2023/04/08 01:11:38;;;;;;;5.40;3.33;;;;;;;;;;5009406;28;20518;-80
2023/04/08 01:14:06;;;;;;;4.68;3.00;;;;;;;;;;5028483;28;20021;-77
2023/04/08 01:16:33;;;;;;;5.00;3.00;;;;;;;;;;5020545;28;20032;-78
2023/04/08 01:19:00;;;;;;;5.30;3.53;;;;;;;;;;5027658;28;20057;-77
2023/04/08 01:21:27;;;;;;;3.83;3.17;;;;;;;;;;5024388;28;20118;-78
2023/04/08 01:24:09;;;;;;;3.92;3.00;;;;;;;;;;5028134;28;20038;-78
2023/04/08 01:26:35;;;;;;;3.75;3.03;;;;;;;;;;5020672;28;20022;-78
2023/04/08 01:29:02;;;;;;;4.30;3.40;;;;;;;;;;5028218;28;20078;-77
2023/04/08 01:31:30;;;;;;;4.43;3.15;;;;;;;;;;5027735;28;20036;-78
2023/04/08 01:33:57;;;;;;;3.25;2.95;;;;;;;;;;5026328;28;20022;-79
2023/04/08 01:36:24;;;;;;;6.07;3.15;;;;;;;;;;5027772;28;20025;-78
2023/04/08 01:38:50;;;;;;;7.70;3.85;;;;;;;;;;5027869;28;20059;-78
2023/04/08 01:41:17;;;;;;;5.28;3.38;;;;;;;;;;5027551;28;20544;-79
2023/04/08 01:43:44;;;;;;;4.38;3.38;;;;;;;;;;5026538;28;20477;-78
2023/04/08 01:46:11;;;;;;;10.63;3.50;;;;;;;;;;5027628;28;20592;-78
2023/04/08 01:48:37;;;;;;;5.13;3.50;;;;;;;;;;5027300;28;20033;-79
2023/04/08 01:51:05;;;;;;;4.63;3.15;;;;;;;;;;5002199;28;20054;-78
2023/04/08 01:53:31;;;;;;;4.75;3.10;;;;;;;;;;5021247;28;20080;-78
2023/04/08 01:56:01;;;;;;;4.28;3.17;;;;;;;;;;5003576;28;20559;-78
2023/04/08 01:58:28;;;;;;;4.65;3.30;;;;;;;;;;5027462;28;20065;-78
2023/04/08 02:00:56;;;;;;;7.88;3.30;;;;;;;;;;5026743;28;20033;-78
2023/04/08 02:03:23;;;;;;;4.88;3.15;;;;;;;;;;5025819;28;20037;-77
2023/04/08 02:05:50;;;;;;;5.93;3.30;;;;;;;;;;5026742;28;20022;-78
2023/04/08 02:08:16;;;;;;;3.60;2.70;;;;;;;;;;5026741;28;20728;-77
2023/04/08 02:10:42;;;;;;;3.78;3.08;;;;;;;;;;5025082;28;20536;-78
2023/04/08 02:13:08;;;;;;;3.33;2.72;;;;;;;;;;5026401;28;20373;-78
2023/04/08 02:15:35;;;;;;;5.18;3.45;;;;;;;;;;5027201;28;20469;-78
2023/04/08 02:18:13;;;;;;;4.05;2.78;;;;;;;;;;5028699;28;20038;-77
2023/04/08 02:21:09;;;;;;;5.03;2.85;;;;;;;;;;4998966;28;20036;-78
2023/04/08 02:23:38;;;;;;;4.88;2.90;;;;;;;;;;5003666;28;20100;-78
2023/04/08 02:26:05;;;;;;;5.78;3.00;;;;;;;;;;5023604;28;20029;-78
2023/04/08 02:28:33;;;;;;;4.38;3.05;;;;;;;;;;5032170;28;20128;-78
2023/04/08 02:31:00;;;;;;;6.47;3.05;;;;;;;;;;5033625;28;20029;-78
2023/04/08 02:33:26;;;;;;;4.70;3.10;;;;;;;;;;5024335;28;20108;-78
2023/04/08 02:35:54;;;;;;;4.93;3.22;;;;;;;;;;5021968;28;20047;-78
2023/04/08 02:38:20;;;;;;;5.55;3.10;;;;;;;;;;5030051;28;20025;-78
2023/04/08 02:40:50;;;;;;;5.68;3.10;;;;;;;;;;5024830;28;20508;-78
2023/04/08 02:43:16;;;;;;;4.07;3.35;;;;;;;;;;5030249;28;20033;-77
2023/04/08 02:45:43;;;;;;;4.25;3.03;;;;;;;;;;5019659;28;20025;-78
2023/04/08 02:48:09;;;;;;;4.68;3.17;;;;;;;;;;5027922;28;20112;-77
2023/04/08 02:50:36;;;;;;;4.60;3.33;;;;;;;;;;5012849;28;20496;-77
2023/04/08 02:53:02;;;;;;;3.80;3.35;;;;;;;;;;5030453;28;20097;-78
2023/04/08 02:55:28;;;;;;;5.60;3.05;;;;;;;;;;5030786;28;20036;-78
2023/04/08 02:57:54;;;;;;;4.07;2.65;;;;;;;;;;5031061;28;20029;-78
2023/04/08 03:00:21;;;;;;;5.57;3.20;;;;;;;;;;5029615;28;20018;-78
2023/04/08 03:02:47;;;;;;;5.53;3.13;;;;;;;;;;5029735;28;20759;-78
2023/04/08 03:05:15;;;;;;;4.68;3.03;;;;;;;;;;5026815;28;20026;-78
2023/04/08 03:07:41;;;;;;;7.82;3.58;;;;;;;;;;5027865;28;20029;-77
2023/04/08 03:10:07;;;;;;;5.10;2.50;;;;;;;;;;5031784;28;20025;-78
2023/04/08 03:12:34;;;;;;;3.92;2.47;;;;;;;;;;5026827;28;20478;-78
2023/04/08 03:15:02;;;;;;;4.78;3.10;;;;;;;;;;5024788;28;20036;-78
2023/04/08 03:17:28;;;;;;;4.15;2.60;;;;;;;;;;5020395;28;20030;-78
2023/04/08 03:19:54;;;;;;;4.57;2.20;;;;;;;;;;5002031;28;20103;-78
2023/04/08 03:22:20;;;;;;;3.95;2.60;;;;;;;;;;5023365;28;20037;-78
2023/04/08 03:24:47;;;;;;;3.80;2.83;;;;;;;;;;5027394;28;20031;-77
2023/04/08 03:27:13;;;;;;;4.50;2.55;;;;;;;;;;5027712;28;20065;-78
2023/04/08 03:29:39;;;;;;;3.85;2.50;;;;;;;;;;5026507;28;20030;-78
2023/04/08 03:32:06;;;;;;;4.10;2.25;;;;;;;;;;5027601;28;20091;-78
2023/04/08 03:34:33;;;;;;;3.33;2.65;;;;;;;;;;5009907;28;20087;-78
2023/04/08 03:36:59;;;;;;;5.05;2.80;;;;;;;;;;5016206;28;20029;-78
2023/04/08 03:39:29;;;;;;;4.55;2.60;;;;;;;;;;5026071;28;20034;-78
2023/04/08 03:41:55;;;;;;;4.15;2.90;;;;;;;;;;5027527;28;20025;-78
2023/04/08 03:44:21;;;;;;;4.05;2.67;;;;;;;;;;5026071;28;20029;-78
2023/04/08 03:46:47;;;;;;;3.60;2.75;;;;;;;;;;5029976;28;20074;-78
2023/04/08 03:49:13;;;;;;;5.10;2.60;;;;;;;;;;5030236;28;20029;-77
2023/04/08 03:51:40;;;;;;;4.90;2.60;;;;;;;;;;5027861;28;20047;-77
2023/04/08 03:54:06;;;;;;;4.75;2.78;;;;;;;;;;5026918;28;20087;-77
2023/04/08 03:56:32;;;;;;;3.83;2.55;;;;;;;;;;5025329;28;20025;-78
2023/04/08 03:58:59;;;;;;;5.07;2.92;;;;;;;;;;5024227;28;20109;-78
2023/04/08 04:01:25;;;;;;;6.90;2.75;;;;;;;;;;5028436;28;20554;-77
2023/04/08 04:03:51;;;;;;;3.40;2.50;;;;;;;;;;5023871;28;20609;-77
2023/04/08 04:06:17;;;;;;;5.05;3.00;;;;;;;;;;5022008;28;20970;-78
2023/04/08 04:08:44;;;;;;;3.92;2.63;;;;;;;;;;5021939;28;20025;-78
2023/04/08 04:11:10;;;;;;;6.63;2.90;;;;;;;;;;5022928;28;20028;-78
2023/04/08 04:13:36;;;;;;;3.33;2.40;;;;;;;;;;5023456;28;20022;-78
2023/04/08 04:16:02;;;;;;;4.65;2.65;;;;;;;;;;5022963;28;20396;-78
2023/04/08 04:18:28;;;;;;;3.60;2.58;;;;;;;;;;5023164;28;20029;-78
2023/04/08 04:20:54;;;;;;;5.85;3.10;;;;;;;;;;5021932;28;20032;-78
2023/04/08 04:23:23;;;;;;;3.08;2.50;;;;;;;;;;5003517;28;20187;-78
2023/04/08 04:25:49;;;;;;;5.72;2.63;;;;;;;;;;5004238;28;20638;-78
2023/04/08 04:28:16;;;;;;;2.67;2.25;;;;;;;;;;5023121;28;20025;-77
2023/04/08 04:30:42;;;;;;;4.10;2.72;;;;;;;;;;5023808;28;20025;-78
2023/04/08 04:33:08;;;;;;;4.32;2.22;;;;;;;;;;5021114;28;20045;-77
2023/04/08 04:35:34;;;;;;;4.43;2.30;;;;;;;;;;5025653;28;20036;-78
2023/04/08 04:38:00;;;;;;;3.17;2.25;;;;;;;;;;5022588;28;20120;-78
2023/04/08 04:40:27;;;;;;;19.75;2.72;;;;;;;;;;5021952;28;20527;-77
2023/04/08 04:42:53;;;;;;;3.28;2.55;;;;;;;;;;5021417;28;20037;-78
2023/04/08 04:45:19;;;;;;;4.05;2.85;;;;;;;;;;5022993;28;20096;-78
2023/04/08 04:47:45;;;;;;;4.13;2.70;;;;;;;;;;5022478;28;20026;-78
2023/04/08 04:50:11;;;;;;;2.72;2.10;;;;;;;;;;5020976;28;20103;-78
2023/04/08 04:52:37;;;;;;;4.50;2.25;;;;;;;;;;5022531;28;20036;-77
2023/04/08 04:55:04;;;;;;;4.05;2.20;;;;;;;;;;5023346;28;20528;-79
2023/04/08 04:57:30;;;;;;;4.35;2.40;;;;;;;;;;5023113;28;20259;-79
2023/04/08 04:59:56;;;;;;;4.18;2.40;;;;;;;;;;5023466;28;20035;-76
2023/04/08 05:02:23;;;;;;;5.88;2.22;;;;;;;;;;5020271;28;20035;-78
2023/04/08 05:04:49;;;;;;;6.70;3.38;;;;;;;;;;5024149;28;20076;-78
2023/04/08 05:07:15;;;;;;;5.22;2.90;;;;;;;;;;5021712;28;20029;-78
2023/04/08 05:09:41;;;;;;;3.55;2.70;;;;;;;;;;5020875;28;20025;-78
2023/04/08 05:12:07;;;;;;;4.30;2.53;;;;;;;;;;5019876;28;20040;-78
2023/04/08 05:14:34;;;;;;;3.25;2.70;;;;;;;;;;5021580;28;20083;-78
2023/04/08 05:17:00;;;;;;;4.55;2.80;;;;;;;;;;5020733;28;20022;-78
2023/04/08 05:19:26;;;;;;;6.80;2.83;;;;;;;;;;5021895;28;20481;-78
2023/04/08 05:21:52;;;;;;;3.67;2.53;;;;;;;;;;5021038;28;20028;-79
2023/04/08 05:24:18;;;;;;;4.95;3.30;;;;;;;;;;5022333;28;20100;-78
2023/04/08 05:26:46;;;;;;;7.90;4.38;;;;;;;;;;5022530;28;20021;-78
2023/04/08 05:29:12;;;;;;;26.90;5.15;;;;;;;;;;5026507;28;20022;-79
2023/04/08 05:31:39;;;;;;;4.70;3.50;;;;;;;;;;5019773;28;20702;-79
2023/04/08 05:34:05;;;;;;;4.65;2.92;;;;;;;;;;5022212;28;20051;-78
2023/04/08 05:36:31;;;;;;;4.93;3.10;;;;;;;;;;5021782;28;20041;-78
2023/04/08 05:38:58;;;;;;;5.15;3.83;;;;;;;;;;5022316;28;20044;-78
2023/04/08 05:41:24;;;;;;;7.00;4.10;;;;;;;;;;5023057;28;20018;-79
2023/04/08 05:43:50;;;;;;;7.85;4.47;;;;;;;;;;5022597;28;20034;-78
2023/04/08 05:46:16;;;;;;;6.45;3.78;;;;;;;;;;5020625;28;20147;-78
2023/04/08 05:48:43;;;;;;;5.57;3.83;;;;;;;;;;5021981;28;20381;-78
2023/04/08 05:51:16;;;;;;;6.80;3.88;;;;;;;;;;5020624;28;20548;-77
2023/04/08 05:53:42;;;;;;;6.13;3.75;;;;;;;;;;5017320;28;20036;-77
2023/04/08 05:56:09;;;;;;;5.32;3.72;;;;;;;;;;5019002;28;20025;-77
2023/04/08 05:58:35;;;;;;;5.80;3.40;;;;;;;;;;5022161;28;20022;-78
2023/04/08 06:01:01;;;;;;;5.45;3.63;;;;;;;;;;5020972;28;20029;-77
2023/04/08 06:03:27;;;;;;;5.65;3.40;;;;;;;;;;5020644;28;20040;-77
2023/04/08 06:05:53;;;;;;;4.25;3.10;;;;;;;;;;5023040;28;20061;-77
2023/04/08 06:08:20;;;;;;;4.40;3.13;;;;;;;;;;5021093;28;20025;-77
2023/04/08 06:10:49;;;;;;;4.60;3.10;;;;;;;;;;5022417;28;20021;-77
2023/04/08 06:13:16;;;;;;;3.40;3.03;;;;;;;;;;5023714;28;20030;-77
2023/04/08 06:15:42;;;;;;;6.88;3.40;;;;;;;;;;5023801;28;20029;-75
2023/04/08 06:18:08;;;;;;;3.75;3.30;;;;;;;;;;5020668;28;20033;-76
2023/04/08 06:20:35;;;;;;;5.22;3.60;;;;;;;;;;5023264;28;20079;-78
2023/04/08 06:23:01;;;;;;;5.05;3.42;;;;;;;;;;5024236;28;20125;-76
2023/04/08 06:25:28;;;;;;;4.07;3.05;;;;;;;;;;5022220;28;20047;-76
2023/04/08 06:27:54;;;;;;;6.72;3.28;;;;;;;;;;5021258;28;20068;-78
2023/04/08 06:30:20;;;;;;;4.50;3.67;;;;;;;;;;5024581;28;20083;-79
2023/04/08 06:32:47;;;;;;;5.65;3.45;;;;;;;;;;5022285;28;20021;-78
2023/04/08 06:35:13;;;;;;;8.35;3.90;;;;;;;;;;5028450;28;20620;-78
2023/04/08 06:37:40;;;;;;;9.77;3.50;;;;;;;;;;5023765;28;20299;-77
2023/04/08 06:40:06;;;;;;;8.55;3.83;;;;;;;;;;5023153;28;20041;-77
2023/04/08 06:42:32;;;;;;;4.18;3.35;;;;;;;;;;5023698;28;20120;-77
2023/04/08 06:44:58;;;;;;;6.80;3.47;;;;;;;;;;5020874;28;20021;-77
2023/04/08 06:47:25;;;;;;;3.85;2.92;;;;;;;;;;5023534;28;20025;-78
2023/04/08 06:49:51;;;;;;;4.15;3.28;;;;;;;;;;5016777;28;20033;-77
2023/04/08 06:52:17;;;;;;;3.83;3.15;;;;;;;;;;5016401;28;20049;-78
2023/04/08 06:54:43;;;;;;;7.95;3.20;;;;;;;;;;5013209;28;20196;-79
2023/04/08 06:57:10;;;;;;;4.03;2.70;;;;;;;;;;5015983;28;20036;-79
2023/04/08 06:59:37;;;;;;;4.25;3.00;;;;;;;;;;5018782;28;20032;-77
2023/04/08 07:02:03;;;;;;;6.68;2.95;;;;;;;;;;5016283;28;20037;-78
2023/04/08 07:04:29;;;;;;;4.85;3.20;;;;;;;;;;5012915;28;20037;-77
2023/04/08 07:06:55;;;;;;;5.60;3.03;;;;;;;;;;5014194;28;20033;-79
2023/04/08 07:09:22;;;;;;;6.00;3.00;;;;;;;;;;5012697;28;20026;-77
2023/04/08 07:11:48;;;;;;;4.28;3.33;;;;;;;;;;5015000;28;20104;-79
2023/04/08 07:14:14;;;;;;;4.38;2.80;;;;;;;;;;5017123;28;20123;-76
2023/04/08 07:16:40;;;;;;;7.05;3.25;;;;;;;;;;5016477;28;20482;-76
2023/04/08 07:19:09;;;;;;;6.63;3.65;;;;;;;;;;5017129;28;20302;-78
2023/04/08 07:21:36;;;;;;;4.18;3.22;;;;;;;;;;5014160;28;20116;-77
2023/04/08 07:24:02;;;;;;;6.90;3.30;;;;;;;;;;5016566;28;20067;-79
2023/04/08 07:26:28;;;;;;;6.18;3.50;;;;;;;;;;5014013;28;20371;-77
2023/04/08 07:28:54;;;;;;;5.68;3.35;;;;;;;;;;5025032;28;20068;-80
2023/04/08 07:31:20;;;;;;;6.00;3.40;;;;;;;;;;5014328;28;20029;-78
2023/04/08 07:33:47;;;;;;;4.53;3.22;;;;;;;;;;5019830;28;20402;-78
2023/04/08 07:36:14;;;;;;;7.03;4.07;;;;;;;;;;5018200;28;20179;-77
2023/04/08 07:38:40;;;;;;;6.07;3.70;;;;;;;;;;5021438;28;20794;-78
2023/04/08 07:41:06;;;;;;;6.15;3.55;;;;;;;;;;5021805;28;20033;-77
2023/04/08 07:43:33;;;;;;;6.25;4.40;;;;;;;;;;5017586;28;20029;-76
2023/04/08 07:46:03;;;;;;;6.18;4.05;;;;;;;;;;5021055;28;20116;-77
2023/04/08 07:48:32;;;;;;;7.65;4.63;;;;;;;;;;5018330;28;20029;-77
2023/04/08 07:51:03;;;;;;;8.13;3.85;;;;;;;;;;5013298;28;20057;-78
2023/04/08 07:53:29;;;;;;;5.60;4.10;;;;;;;;;;5006275;28;20439;-77
2023/04/08 07:55:55;;;;;;;5.40;3.65;;;;;;;;;;4999472;28;20030;-77
2023/04/08 07:58:22;;;;;;;15.00;4.03;;;;;;;;;;5003508;28;20036;-77
2023/04/08 08:00:48;;;;;;;6.05;4.05;;;;;;;;;;5004562;28;20109;-77
2023/04/08 08:03:14;;;;;;;7.70;4.15;;;;;;;;;;5006509;28;20041;-77
2023/04/08 08:05:40;;;;;;;11.20;3.70;;;;;;;;;;5006971;28;20026;-78
2023/04/08 08:08:06;;;;;;;5.90;3.20;;;;;;;;;;5004174;28;20080;-78
2023/04/08 08:10:33;;;;;;;7.20;3.30;;;;;;;;;;5002856;28;20026;-77
2023/04/08 08:12:59;;;;;;;6.32;3.38;;;;;;;;;;5006676;28;20034;-76
2023/04/08 08:15:25;;;;;;;8.25;3.78;;;;;;;;;;5005949;28;20734;-77
2023/04/08 08:17:52;;;;;;;6.60;3.70;;;;;;;;;;5005545;28;20105;-78
2023/04/08 08:20:18;;;;;;;5.50;3.28;;;;;;;;;;5003939;28;20026;-79
2023/04/08 08:22:44;;;;;;;5.57;3.63;;;;;;;;;;5006092;28;20528;-77
2023/04/08 08:25:11;;;;;;;4.95;3.38;;;;;;;;;;5005553;28;20025;-78
2023/04/08 08:27:39;;;;;;;3.63;2.33;;;;;;;;;;5006621;28;20116;-78
2023/04/08 08:30:05;;;;;;;4.20;2.70;;;;;;;;;;5004529;28;20080;-78
2023/04/08 08:32:31;;;;;;;3.78;2.55;;;;;;;;;;5006071;28;20029;-78
2023/04/08 08:34:57;;;;;;;5.03;2.75;;;;;;;;;;5005922;28;20030;-79
2023/04/08 08:37:24;;;;;;;3.78;2.60;;;;;;;;;;5005020;28;20021;-78
2023/04/08 08:39:50;;;;;;;4.15;2.53;;;;;;;;;;5005706;28;20033;-78
2023/04/08 08:42:22;;;;;;;3.65;2.40;;;;;;;;;;5004451;28;20124;-79
2023/04/08 08:44:49;;;;;;;2.58;2.00;;;;;;;;;;5006334;28;20132;-78
2023/04/08 08:47:18;;;;;;;3.97;2.20;;;;;;;;;;5005832;28;20382;-77
2023/04/08 08:49:45;;;;;;;5.47;2.80;;;;;;;;;;5004910;28;20097;-80
2023/04/08 08:52:15;;;;;;;5.63;2.75;;;;;;;;;;5023528;28;20045;-77
2023/04/08 08:54:41;;;;;;;6.55;2.58;;;;;;;;;;5025764;28;20095;-77
2023/04/08 08:57:18;;;;;;;4.82;2.15;;;;;;;;;;5007945;28;20038;-77
2023/04/08 08:59:45;;;;;;;4.05;2.40;;;;;;;;;;5019833;28;20041;-78
2023/04/08 09:02:28;;;;;;;3.95;2.58;;;;;;;;;;5024627;28;20029;-78
2023/04/08 09:04:58;;;;;;;6.03;2.78;;;;;;;;;;5018928;28;20782;-78
2023/04/08 09:07:28;;;;;;;2.70;2.33;;;;;;;;;;5024910;28;20029;-78
2023/04/08 09:09:54;;;;;;;5.22;2.40;;;;;;;;;;5023574;28;20033;-78
2023/04/08 09:12:21;;;;;;;3.30;2.13;;;;;;;;;;5025245;28;20049;-77
2023/04/08 09:14:47;;;;;;;4.65;2.53;;;;;;;;;;5024939;28;20116;-77
2023/04/08 09:17:13;;;;;;;3.50;2.40;;;;;;;;;;5024984;28;20028;-77
2023/04/08 09:19:40;;;;;;;2.60;1.90;;;;;;;;;;5024075;28;20021;-77
2023/04/08 09:22:07;;;;;;;4.72;2.03;;;;;;;;;;5024341;28;20026;-78
2023/04/08 09:24:33;;;;;;;3.63;1.90;;;;;;;;;;5025102;28;20030;-77
2023/04/08 09:26:59;;;;;;;2.90;1.70;;;;;;;;;;5024568;28;20033;-78
2023/04/08 09:29:26;;;;;;;2.80;1.83;;;;;;;;;;5023584;28;20410;-79
2023/04/08 09:31:56;;;;;;;3.10;2.05;;;;;;;;;;5024676;28;20057;-78
2023/04/08 09:34:23;;;;;;;2.08;1.58;;;;;;;;;;5025207;28;20037;-78
2023/04/08 09:36:50;;;;;;;3.45;1.80;;;;;;;;;;5029726;28;20079;-76
2023/04/08 09:39:16;;;;;;;7.00;2.47;;;;;;;;;;5027444;28;20029;-78
2023/04/08 09:41:43;;;;;;;2.33;1.88;;;;;;;;;;5028168;28;20274;-77
2023/04/08 09:44:10;;;;;;;4.22;1.88;;;;;;;;;;5025873;28;20119;-78
2023/04/08 09:46:37;;;;;;;3.53;2.40;;;;;;;;;;5004641;28;20032;-77
2023/04/08 09:49:06;;;;;;;2.83;2.42;;;;;;;;;;4998404;28;20030;-78
2023/04/08 09:51:36;;;;;;;3.97;2.80;;;;;;;;;;5005794;28;20034;-78
2023/04/08 09:54:03;;;;;;;3.15;2.38;;;;;;;;;;5024862;28;20033;-78
2023/04/08 09:56:35;;;;;;;2.60;1.98;;;;;;;;;;5022603;28;20057;-77
2023/04/08 09:59:09;;;;;;;2.75;1.80;;;;;;;;;;5024093;28;20025;-78
2023/04/08 10:01:39;;;;;;;2.20;1.85;;;;;;;;;;5024294;28;20131;-78
2023/04/08 10:04:10;;;;;;;3.10;2.10;;;;;;;;;;5032005;28;20103;-78
2023/04/08 10:06:36;;;;;;;2.28;1.92;;;;;;;;;;5025511;28;20401;-78
2023/04/08 10:09:03;;;;;;;2.95;2.10;;;;;;;;;;5029121;28;20028;-77
2023/04/08 10:11:30;;;;;;;3.35;2.15;;;;;;;;;;5025739;28;20093;-78
2023/04/08 10:13:56;;;;;;;3.60;1.98;;;;;;;;;;5031691;28;20033;-78
2023/04/08 10:16:25;;;;;;;3.30;2.15;;;;;;;;;;5024881;28;20026;-79
2023/04/08 10:18:54;;;;;;;3.05;2.33;;;;;;;;;;4999232;28;20536;-79
2023/04/08 10:21:33;;;;;;;7.85;2.20;;;;;;;;;;5021587;28;20493;-78
2023/04/08 10:24:04;;;;;;;3.80;2.45;;;;;;;;;;5018507;28;20110;-78
2023/04/08 10:26:35;;;;;;;3.55;2.35;;;;;;;;;;5023908;28;20026;-77
2023/04/08 10:29:20;;;;;;;3.22;2.20;;;;;;;;;;5022861;28;20516;-78
2023/04/08 10:31:50;;;;;;;4.82;2.30;;;;;;;;;;5002803;28;20509;-78
2023/04/08 10:34:20;;;;;;;3.97;2.47;;;;;;;;;;5020368;28;20037;-78
2023/04/08 10:36:47;;;;;;;3.60;2.30;;;;;;;;;;5025139;28;20370;-78
2023/04/08 10:39:15;;;;;;;3.83;2.42;;;;;;;;;;5022680;28;20029;-79
2023/04/08 10:41:45;;;;;;;2.55;2.30;;;;;;;;;;5023752;28;20122;-77
2023/04/08 10:44:25;;;;;;;5.88;2.70;;;;;;;;;;5024199;28;20045;-76
2023/04/08 10:46:52;;;;;;;3.50;2.10;;;;;;;;;;5018536;28;20018;-77
2023/04/08 10:49:18;;;;;;;2.70;1.90;;;;;;;;;;5028658;28;20032;-76
2023/04/08 10:51:45;;;;;;;3.28;2.65;;;;;;;;;;5024323;28;20045;-77
2023/04/08 10:54:15;;;;;;;4.68;2.30;;;;;;;;;;5024038;28;20575;-77
2023/04/08 10:56:46;;;;;;;4.53;2.35;;;;;;;;;;5024374;28;20869;-76
2023/04/08 10:59:15;;;;;;;3.50;2.30;;;;;;;;;;5023575;28;20490;-77
2023/04/08 11:01:43;;;;;;;2.95;2.15;;;;;;;;;;5025190;28;20083;-77
2023/04/08 11:04:18;;;;;;;3.75;2.58;;;;;;;;;;5026975;28;20041;-76
2023/04/08 11:06:45;;;;;;;3.15;2.15;;;;;;;;;;5029282;28;20761;-77
2023/04/08 11:09:12;;;;;;;3.33;2.22;;;;;;;;;;5025521;28;20068;-76
2023/04/08 11:11:38;;;;;;;4.55;2.45;;;;;;;;;;5028545;28;20421;-76
2023/04/08 11:14:04;;;;;;;4.75;2.67;;;;;;;;;;5025822;28;20029;-77
2023/04/08 11:16:31;;;;;;;2.80;2.45;;;;;;;;;;5026877;28;20029;-77
2023/04/08 11:18:57;;;;;;;3.05;2.58;;;;;;;;;;5026680;28;20095;-76
2023/04/08 11:21:28;;;;;;;2.75;2.35;;;;;;;;;;5026619;28;20687;-78
2023/04/08 11:23:55;;;;;;;2.50;2.15;;;;;;;;;;5025742;28;20049;-76
2023/04/08 11:26:21;;;;;;;3.42;2.30;;;;;;;;;;5026691;28;20033;-77
2023/04/08 11:28:49;;;;;;;5.47;2.80;;;;;;;;;;5027885;28;20029;-77
2023/04/08 11:31:15;;;;;;;3.55;2.58;;;;;;;;;;5027247;28;20025;-76
2023/04/08 11:33:48;;;;;;;2.65;2.30;;;;;;;;;;5026541;28;20025;-75
2023/04/08 11:36:17;;;;;;;4.25;2.58;;;;;;;;;;5026475;28;20021;-77
2023/04/08 11:38:44;;;;;;;5.00;2.90;;;;;;;;;;5026060;28;20033;-76
2023/04/08 11:41:10;;;;;;;4.50;2.63;;;;;;;;;;5026397;28;20037;-76
2023/04/08 11:43:39;;;;;;;3.00;2.40;;;;;;;;;;5027787;28;20087;-75
2023/04/08 11:46:10;;;;;;;4.72;2.75;;;;;;;;;;5024003;28;20631;-76
2023/04/08 11:48:37;;;;;;;4.53;2.78;;;;;;;;;;5005907;28;20746;-75
2023/04/08 11:51:11;;;;;;;4.07;2.55;;;;;;;;;;5023385;28;20111;-75
2023/04/08 11:53:37;;;;;;;4.25;2.22;;;;;;;;;;5023222;28;20032;-75
2023/04/08 11:56:20;;;;;;;2.97;2.50;;;;;;;;;;5023936;28;20030;-76
2023/04/08 11:58:46;;;;;;;5.28;2.72;;;;;;;;;;5023411;28;20045;-76
2023/04/08 12:01:13;;;;;;;3.58;2.25;;;;;;;;;;5022520;28;20037;-75
2023/04/08 12:03:39;;;;;;;3.13;2.40;;;;;;;;;;5024137;28;20069;-75
2023/04/08 12:06:07;;;;;;;3.30;2.33;;;;;;;;;;5024835;28;20076;-71
2023/04/08 12:08:33;;;;;;;7.03;2.40;;;;;;;;;;5019766;28;20385;-78
2023/04/08 12:11:00;;;;;;;5.15;2.53;;;;;;;;;;5022504;28;20025;-83
2023/04/08 12:13:26;;;;;;;3.97;2.30;;;;;;;;;;5024701;28;20033;-77
2023/04/08 12:15:52;;;;;;;3.88;2.55;;;;;;;;;;5023845;28;21215;-82
2023/04/08 12:18:19;;;;;;;3.42;2.78;;;;;;;;;;5024402;28;20528;-83
2023/04/08 12:20:46;;;;;;;5.60;2.60;;;;;;;;;;5024056;28;20132;-86
2023/04/08 12:23:12;;;;;;;5.10;2.42;;;;;;;;;;5002796;28;20473;-85
2023/04/08 12:25:38;;;;;;;4.78;2.50;;;;;;;;;;5008610;28;20116;-72
2023/04/08 12:28:04;;;;;;;6.72;2.22;;;;;;;;;;5030722;28;20033;-91
2023/04/08 12:30:31;;;;;;;4.95;2.63;;;;;;;;;;5037493;28;20049;-79
2023/04/08 12:32:58;;;;;;;3.08;2.00;;;;;;;;;;5026723;28;21217;-73
2023/04/08 12:35:24;;;;;;;3.20;2.10;;;;;;;;;;5031622;28;20083;-74
2023/04/08 12:37:50;;;;;;;6.30;2.58;;;;;;;;;;5027198;28;20087;-79
2023/04/08 12:40:18;;;;;;;5.70;2.47;;;;;;;;;;5028257;28;20028;-84
2023/04/08 12:42:44;;;;;;;6.50;2.50;;;;;;;;;;5027248;28;20075;-83
2023/04/08 12:45:10;;;;;;;2.80;2.30;;;;;;;;;;5007658;28;20026;-72
2023/04/08 12:47:36;;;;;;;6.65;2.20;;;;;;;;;;5023041;28;20032;-78
2023/04/08 12:50:02;;;;;;;3.20;2.10;;;;;;;;;;5023698;28;20041;-83
2023/04/08 12:52:29;;;;;;;5.13;2.30;;;;;;;;;;5024018;28;20098;-82
2023/04/08 12:54:55;;;;;;;5.18;2.13;;;;;;;;;;5029001;28;20064;-80
2023/04/08 12:57:21;;;;;;;4.50;2.50;;;;;;;;;;5024656;28;20469;-72
2023/04/08 12:59:47;;;;;;;4.90;2.35;;;;;;;;;;5025955;28;20056;-81
2023/04/08 13:02:14;;;;;;;3.75;2.30;;;;;;;;;;5028383;28;20111;-83
2023/04/08 13:04:40;;;;;;;2.85;2.25;;;;;;;;;;5006800;28;20029;-76
2023/04/08 13:07:06;;;;;;;3.28;2.33;;;;;;;;;;5030101;28;20023;-84
2023/04/08 13:09:32;;;;;;;3.35;2.20;;;;;;;;;;5029669;28;20113;-83
2023/04/08 13:11:58;;;;;;;5.47;2.03;;;;;;;;;;5026172;28;20096;-80
2023/04/08 13:14:26;;;;;;;3.90;1.90;;;;;;;;;;5026259;28;20108;-83
2023/04/08 13:16:52;;;;;;;3.38;2.10;;;;;;;;;;5025769;28;20162;-85
2023/04/08 13:19:18;;;;;;;3.03;2.30;;;;;;;;;;5029057;28;20032;-80
2023/04/08 13:21:44;;;;;;;3.75;2.22;;;;;;;;;;5026403;28;20049;-82
2023/04/08 13:24:10;;;;;;;3.35;2.20;;;;;;;;;;5003631;28;20030;-74
2023/04/08 13:26:37;;;;;;;3.85;2.05;;;;;;;;;;5024204;28;20029;-73
2023/04/08 13:29:06;;;;;;;3.45;2.20;;;;;;;;;;5028746;28;20150;-85
2023/04/08 13:31:32;;;;;;;4.80;2.03;;;;;;;;;;5021543;28;20596;-72
2023/04/08 13:33:59;;;;;;;3.30;2.22;;;;;;;;;;5020188;28;20248;-73
2023/04/08 13:36:27;;;;;;;2.65;1.98;;;;;;;;;;5020077;28;20022;-85
2023/04/08 13:38:53;;;;;;;4.60;2.08;;;;;;;;;;5024767;28;20030;-73
2023/04/08 13:41:20;;;;;;;3.63;1.90;;;;;;;;;;5022802;28;20112;-72
2023/04/08 13:43:47;;;;;;;2.92;2.13;;;;;;;;;;5005472;28;20873;-82
2023/04/08 13:46:13;;;;;;;6.30;2.00;;;;;;;;;;5017865;28;20108;-79
2023/04/08 13:48:40;;;;;;;2.85;1.90;;;;;;;;;;5025051;28;20037;-73
2023/04/08 13:51:06;;;;;;;3.50;1.90;;;;;;;;;;5022442;28;20076;-80
2023/04/08 13:53:32;;;;;;;8.40;2.42;;;;;;;;;;5018737;28;20429;-77
2023/04/08 13:55:58;;;;;;;6.47;2.35;;;;;;;;;;5021791;28;20025;-84
2023/04/08 13:58:25;;;;;;;3.15;2.00;;;;;;;;;;5022865;28;20028;-83
2023/04/08 14:00:51;;;;;;;4.47;2.30;;;;;;;;;;5020793;28;20120;-80
2023/04/08 14:03:18;;;;;;;6.72;2.30;;;;;;;;;;5022513;28;20095;-76
2023/04/08 14:05:45;;;;;;;8.23;2.40;;;;;;;;;;5025771;28;20136;-85
2023/04/08 14:08:12;;;;;;;4.97;1.95;;;;;;;;;;5026230;28;20033;-73
2023/04/08 14:10:38;;;;;;;6.95;2.47;;;;;;;;;;5028560;28;20028;-75
2023/04/08 14:13:05;;;;;;;3.58;2.17;;;;;;;;;;5023439;28;20037;-84
2023/04/08 14:15:31;;;;;;;4.75;2.33;;;;;;;;;;5020506;28;20399;-74
2023/04/08 14:17:57;;;;;;;4.13;2.00;;;;;;;;;;5021902;28;20021;-75
2023/04/08 14:20:23;;;;;;;3.92;2.42;;;;;;;;;;5025040;28;20033;-72
2023/04/08 14:22:50;;;;;;;3.22;2.00;;;;;;;;;;5018451;28;20136;-83
2023/04/08 14:25:16;;;;;;;5.32;2.15;;;;;;;;;;5023562;28;20021;-84
2023/04/08 14:27:43;;;;;;;6.63;2.30;;;;;;;;;;5021067;28;20029;-72
2023/04/08 14:30:09;;;;;;;4.07;2.35;;;;;;;;;;5027514;28;20533;-72
2023/04/08 14:32:35;;;;;;;4.80;1.92;;;;;;;;;;5021946;28;20018;-73
2023/04/08 14:35:02;;;;;;;6.75;2.60;;;;;;;;;;5022677;28;20025;-70
2023/04/08 14:37:29;;;;;;;12.43;2.67;;;;;;;;;;5026190;28;20026;-73
2023/04/08 14:39:56;;;;;;;3.00;2.00;;;;;;;;;;5026129;28;20026;-72
2023/04/08 14:42:22;;;;;;;3.40;1.83;;;;;;;;;;5026963;28;20017;-89